createdAt,value
2022-12-31T00:01:27.215Z,100.00
2022-12-31T00:03:54.868Z,100.00
2022-12-31T00:06:30.280Z,100.00
2022-12-31T00:08:58.942Z,100.00
2022-12-31T00:11:26.826Z,100.00
2022-12-31T00:13:54.234Z,100.00
2022-12-31T00:16:26.556Z,100.00
2022-12-31T00:18:55.963Z,100.00
2022-12-31T00:21:22.793Z,100.00
2022-12-31T00:23:49.489Z,100.00
2022-12-31T00:26:21.493Z,100.00
2022-12-31T00:28:48.956Z,100.00
2022-12-31T00:31:21.368Z,100.00
2022-12-31T00:33:48.028Z,100.00
2022-12-31T00:36:17.066Z,100.00
2022-12-31T00:38:45.923Z,100.00
2022-12-31T00:41:13.233Z,100.00
2022-12-31T00:43:40.189Z,100.00
2022-12-31T00:46:06.932Z,100.00
2022-12-31T00:48:34.145Z,100.00
2022-12-31T00:51:02.161Z,100.00
2022-12-31T00:53:29.204Z,100.00
2022-12-31T00:56:06.567Z,100.00
2022-12-31T00:58:34.368Z,100.00
2022-12-31T01:01:17.747Z,100.00
2022-12-31T01:03:44.863Z,100.00
2022-12-31T01:06:12.041Z,100.00
2022-12-31T01:08:38.958Z,100.00
2022-12-31T01:11:28.940Z,100.00
2022-12-31T01:14:06.806Z,100.00
2022-12-31T01:16:36.828Z,100.00
2022-12-31T01:19:06.839Z,100.00
2022-12-31T01:21:35.196Z,100.00
2022-12-31T01:24:01.810Z,100.00
2022-12-31T01:26:29.073Z,100.00
2022-12-31T01:28:55.877Z,100.00
2022-12-31T01:31:23.642Z,100.00
2022-12-31T01:33:51.254Z,100.00
2022-12-31T01:36:25.577Z,100.00
2022-12-31T01:38:54.698Z,100.00
2022-12-31T01:41:27.067Z,100.00
2022-12-31T01:43:55.630Z,100.00
2022-12-31T01:46:40.259Z,100.00
2022-12-31T01:49:15.961Z,100.00
2022-12-31T01:51:46.797Z,100.00
2022-12-31T01:54:16.061Z,100.00
2022-12-31T01:56:43.589Z,100.00
2022-12-31T01:59:13.333Z,100.00
2022-12-31T02:01:39.954Z,100.00
2022-12-31T02:04:13.440Z,100.00
2022-12-31T02:06:49.135Z,100.00
2022-12-31T02:09:15.985Z,100.00
2022-12-31T02:11:42.571Z,100.00
2022-12-31T02:14:20.735Z,100.00
2022-12-31T02:16:57.597Z,100.00
2022-12-31T02:19:48.843Z,100.00
2022-12-31T02:22:21.141Z,100.00
2022-12-31T02:25:08.416Z,100.00
2022-12-31T02:27:58.153Z,100.00
2022-12-31T02:30:25.570Z,100.00
2022-12-31T02:33:08.384Z,100.00
2022-12-31T02:35:34.939Z,100.00
2022-12-31T02:38:10.299Z,100.00
2022-12-31T02:40:38.661Z,100.00
2022-12-31T02:43:05.875Z,100.00
2022-12-31T02:45:38.117Z,100.00
2022-12-31T02:48:15.488Z,100.00
2022-12-31T02:51:05.457Z,100.00
2022-12-31T02:53:48.459Z,100.00
2022-12-31T02:56:42.213Z,100.00
2022-12-31T02:59:38.991Z,100.00
2022-12-31T03:02:15.309Z,100.00
2022-12-31T03:04:48.904Z,100.00
2022-12-31T03:07:22.252Z,100.00
2022-12-31T03:09:50.177Z,100.00
2022-12-31T03:12:37.652Z,100.00
2022-12-31T03:15:06.734Z,100.00
2022-12-31T03:17:34.564Z,100.00
2022-12-31T03:20:19.883Z,100.00
2022-12-31T03:22:46.840Z,100.00
2022-12-31T03:25:54.481Z,100.00
2022-12-31T03:28:24.049Z,100.00
2022-12-31T03:30:53.923Z,100.00
2022-12-31T03:33:21.736Z,100.00
2022-12-31T03:35:49.500Z,100.00
2022-12-31T03:38:17.503Z,100.00
2022-12-31T03:40:47.448Z,100.00
2022-12-31T03:43:14.901Z,100.00
2022-12-31T03:45:41.910Z,100.00
2022-12-31T03:48:09.815Z,100.00
2022-12-31T03:50:36.655Z,100.00
2022-12-31T03:53:03.287Z,100.00
2022-12-31T03:55:29.832Z,100.00
2022-12-31T03:57:56.498Z,100.00
2022-12-31T04:00:23.042Z,100.00
2022-12-31T04:02:50.856Z,100.00
2022-12-31T04:05:18.596Z,100.00
2022-12-31T04:07:45.233Z,100.00
2022-12-31T04:10:14.616Z,100.00
2022-12-31T04:12:41.155Z,100.00
2022-12-31T04:15:15.322Z,100.00
2022-12-31T04:17:41.906Z,100.00
2022-12-31T04:20:09.135Z,100.00
2022-12-31T04:22:35.577Z,100.00
2022-12-31T04:25:02.169Z,100.00
2022-12-31T04:27:28.693Z,100.00
2022-12-31T04:29:55.273Z,100.00
2022-12-31T04:32:21.865Z,100.00
2022-12-31T04:34:48.405Z,100.00
2022-12-31T04:37:14.932Z,100.00
2022-12-31T04:39:41.522Z,100.00
2022-12-31T04:42:08.026Z,100.00
2022-12-31T04:44:35.188Z,100.00
2022-12-31T04:47:02.138Z,100.00
2022-12-31T04:49:28.720Z,100.00
2022-12-31T04:51:55.247Z,100.00
2022-12-31T04:54:21.793Z,100.00
2022-12-31T04:56:48.313Z,100.00
2022-12-31T04:59:14.812Z,100.00
2022-12-31T05:01:41.718Z,100.00
2022-12-31T05:04:08.357Z,100.00
2022-12-31T05:06:34.999Z,100.00
2022-12-31T05:09:01.780Z,100.00
2022-12-31T05:11:28.352Z,100.00
2022-12-31T05:13:55.076Z,100.00
2022-12-31T05:16:21.818Z,100.00
2022-12-31T05:18:48.418Z,100.00
2022-12-31T05:21:20.212Z,100.00
2022-12-31T05:23:47.166Z,100.00
2022-12-31T05:26:14.109Z,100.00
2022-12-31T05:28:41.102Z,100.00
2022-12-31T05:31:08.042Z,100.00
2022-12-31T05:33:34.679Z,100.00
2022-12-31T05:36:01.230Z,100.00
2022-12-31T05:38:27.776Z,100.00
2022-12-31T05:41:02.400Z,100.00
2022-12-31T05:43:29.035Z,100.00
2022-12-31T05:45:55.747Z,100.00
2022-12-31T05:48:22.366Z,100.00
2022-12-31T05:50:50.030Z,100.00
2022-12-31T05:53:16.598Z,100.00
2022-12-31T05:55:44.733Z,100.00
2022-12-31T05:58:11.228Z,100.00
2022-12-31T06:00:37.752Z,100.00
2022-12-31T06:03:04.514Z,100.00
2022-12-31T06:05:31.131Z,100.00
2022-12-31T06:07:57.707Z,100.00
2022-12-31T06:10:24.304Z,100.00
2022-12-31T06:12:50.845Z,100.00
2022-12-31T06:15:17.439Z,100.00
2022-12-31T06:17:44.027Z,100.00
2022-12-31T06:20:13.107Z,100.00
2022-12-31T06:22:40.053Z,100.00
2022-12-31T06:25:07.119Z,100.00
2022-12-31T06:27:33.648Z,100.00
2022-12-31T06:30:00.162Z,100.00
2022-12-31T06:32:26.662Z,100.00
2022-12-31T06:34:53.144Z,100.00
2022-12-31T06:37:19.699Z,100.00
2022-12-31T06:39:46.243Z,100.00
2022-12-31T06:42:14.215Z,100.00
2022-12-31T06:44:41.864Z,100.00
2022-12-31T06:47:08.389Z,100.00
2022-12-31T06:49:34.912Z,100.00
2022-12-31T06:52:01.451Z,100.00
2022-12-31T06:54:28.000Z,100.00
2022-12-31T06:56:54.837Z,100.00
2022-12-31T06:59:27.940Z,100.00
2022-12-31T07:02:00.549Z,100.00
2022-12-31T07:05:04.714Z,100.00
2022-12-31T07:07:48.279Z,100.00
2022-12-31T07:10:35.973Z,100.00
2022-12-31T07:13:20.723Z,100.00
2022-12-31T07:16:25.621Z,100.00
2022-12-31T07:19:06.737Z,100.00
2022-12-31T07:21:39.380Z,100.00
2022-12-31T07:24:10.404Z,100.00
2022-12-31T07:27:14.865Z,100.00
2022-12-31T07:30:01.746Z,100.00
2022-12-31T07:32:41.656Z,100.00
2022-12-31T07:35:40.168Z,100.00
2022-12-31T07:38:12.538Z,100.00
2022-12-31T07:40:57.514Z,100.00
2022-12-31T07:43:48.525Z,100.00
2022-12-31T07:46:40.486Z,100.00
2022-12-31T07:49:12.425Z,100.00
2022-12-31T07:51:40.239Z,100.00
2022-12-31T07:54:11.943Z,100.00
2022-12-31T07:56:41.061Z,100.00
2022-12-31T07:59:32.711Z,100.00
2022-12-31T08:02:18.144Z,100.00
2022-12-31T08:05:10.783Z,100.00
2022-12-31T08:07:49.326Z,100.00
2022-12-31T08:10:38.598Z,100.00
2022-12-31T08:13:10.020Z,100.00
2022-12-31T08:15:38.613Z,100.00
2022-12-31T08:18:06.392Z,100.00
2022-12-31T08:20:36.440Z,100.00
2022-12-31T08:23:20.316Z,100.00
2022-12-31T08:25:52.938Z,100.00
2022-12-31T08:28:43.849Z,100.00
2022-12-31T08:31:18.299Z,100.00
2022-12-31T08:34:18.473Z,100.00
2022-12-31T08:36:56.423Z,100.00
2022-12-31T08:39:53.241Z,100.00
2022-12-31T08:42:30.084Z,100.00
2022-12-31T08:45:12.792Z,100.00
2022-12-31T08:47:48.467Z,100.00
2022-12-31T08:50:17.328Z,100.00
2022-12-31T08:52:44.887Z,100.00
2022-12-31T08:55:16.509Z,100.00
2022-12-31T08:58:15.421Z,100.00
2022-12-31T09:00:42.580Z,100.00
2022-12-31T09:03:21.920Z,100.00
2022-12-31T09:06:14.939Z,90.78
2022-12-31T09:08:55.795Z,72.99
2022-12-31T09:11:30.032Z,62.06
2022-12-31T09:14:21.253Z,56.23
2022-12-31T09:17:09.345Z,55.05
2022-12-31T09:19:36.099Z,58.69
2022-12-31T09:22:03.040Z,57.60
2022-12-31T09:24:29.781Z,60.27
2022-12-31T09:27:04.653Z,62.90
2022-12-31T09:29:49.549Z,67.77
2022-12-31T09:32:51.909Z,73.63
2022-12-31T09:35:46.346Z,78.43
2022-12-31T09:38:27.795Z,81.35
2022-12-31T09:41:34.302Z,83.36
2022-12-31T09:44:38.824Z,83.58
2022-12-31T09:47:23.670Z,83.40
2022-12-31T09:49:53.099Z,84.92
2022-12-31T09:52:41.022Z,83.79
2022-12-31T09:55:07.553Z,81.60
2022-12-31T09:57:45.358Z,82.16
2022-12-31T10:00:28.168Z,83.53
2022-12-31T10:03:16.136Z,80.90
2022-12-31T10:06:20.152Z,79.84
2022-12-31T10:09:08.526Z,80.22
2022-12-31T10:11:59.476Z,79.19
2022-12-31T10:14:59.359Z,79.12
2022-12-31T10:17:52.319Z,78.50
2022-12-31T10:20:45.689Z,78.34
2022-12-31T10:23:15.395Z,78.78
2022-12-31T10:26:19.752Z,77.36
2022-12-31T10:28:46.251Z,79.23
2022-12-31T10:31:12.788Z,77.17
2022-12-31T10:33:42.852Z,76.83
2022-12-31T10:36:16.757Z,78.04
2022-12-31T10:39:04.990Z,76.90
2022-12-31T10:42:03.246Z,77.53
2022-12-31T10:44:38.994Z,76.19
2022-12-31T10:47:33.397Z,75.45
2022-12-31T10:50:34.112Z,74.64
2022-12-31T10:53:37.473Z,73.90
2022-12-31T10:56:41.630Z,72.94
2022-12-31T10:59:11.137Z,74.18
2022-12-31T11:01:50.765Z,73.22
2022-12-31T11:04:29.806Z,74.67
2022-12-31T11:07:29.550Z,72.60
2022-12-31T11:10:24.148Z,73.46
2022-12-31T11:13:08.936Z,71.70
2022-12-31T11:15:50.272Z,71.84
2022-12-31T11:18:45.184Z,71.12
2022-12-31T11:21:48.969Z,68.70
2022-12-31T11:24:38.074Z,70.03
2022-12-31T11:27:44.830Z,69.40
2022-12-31T11:30:27.473Z,68.77
2022-12-31T11:33:12.341Z,69.94
2022-12-31T11:35:41.911Z,68.30
2022-12-31T11:38:50.878Z,66.99
2022-12-31T11:41:23.622Z,65.64
2022-12-31T11:44:20.693Z,66.74
2022-12-31T11:47:03.175Z,65.44
2022-12-31T11:50:03.113Z,65.59
2022-12-31T11:52:48.662Z,65.58
2022-12-31T11:55:36.992Z,65.79
2022-12-31T11:58:12.951Z,64.32
2022-12-31T12:00:43.379Z,64.42
2022-12-31T12:03:11.179Z,64.53
2022-12-31T12:05:39.712Z,65.23
2022-12-31T12:08:06.513Z,64.30
2022-12-31T12:10:38.206Z,64.59
2022-12-31T12:13:16.773Z,64.02
2022-12-31T12:15:50.862Z,64.39
2022-12-31T12:18:36.989Z,62.84
2022-12-31T12:21:09.678Z,63.23
2022-12-31T12:23:36.967Z,63.10
2022-12-31T12:26:03.787Z,63.47
2022-12-31T12:28:44.283Z,63.20
2022-12-31T12:31:19.903Z,62.56
2022-12-31T12:33:47.656Z,62.21
2022-12-31T12:36:16.763Z,62.35
2022-12-31T12:38:43.724Z,62.40
2022-12-31T12:41:18.797Z,61.95
2022-12-31T12:43:45.422Z,62.74
2022-12-31T12:46:48.408Z,62.85
2022-12-31T12:49:27.453Z,63.09
2022-12-31T12:52:09.680Z,61.88
2022-12-31T12:54:39.108Z,61.97
2022-12-31T12:57:20.897Z,62.34
2022-12-31T13:00:07.728Z,62.37
2022-12-31T13:02:48.982Z,61.99
2022-12-31T13:05:32.024Z,62.54
2022-12-31T13:08:04.361Z,63.32
2022-12-31T13:11:16.042Z,63.38
2022-12-31T13:13:45.429Z,62.97
2022-12-31T13:16:23.649Z,62.41
2022-12-31T13:19:02.799Z,63.41
2022-12-31T13:21:43.815Z,62.97
2022-12-31T13:24:28.934Z,63.29
2022-12-31T13:27:10.386Z,63.76
2022-12-31T13:29:39.654Z,64.62
2022-12-31T13:32:10.999Z,65.26
2022-12-31T13:34:41.664Z,65.41
2022-12-31T13:37:32.179Z,65.50
2022-12-31T13:40:07.611Z,65.44
2022-12-31T13:42:50.842Z,66.09
2022-12-31T13:45:25.313Z,66.85
2022-12-31T13:47:58.589Z,66.84
2022-12-31T13:50:42.487Z,69.06
2022-12-31T13:53:26.805Z,69.55
2022-12-31T13:56:03.595Z,69.81
2022-12-31T13:58:38.018Z,70.44
2022-12-31T14:01:30.689Z,71.94
2022-12-31T14:04:13.998Z,73.36
2022-12-31T14:06:55.015Z,73.73
2022-12-31T14:09:30.681Z,75.09
2022-12-31T14:12:28.215Z,77.02
2022-12-31T14:14:59.775Z,78.69
2022-12-31T14:17:41.384Z,80.48
2022-12-31T14:20:22.913Z,81.99
2022-12-31T14:23:08.415Z,83.22
2022-12-31T14:25:58.813Z,84.19
2022-12-31T14:28:46.812Z,85.18
2022-12-31T14:31:46.029Z,85.70
2022-12-31T14:34:25.713Z,86.62
2022-12-31T14:36:58.071Z,86.95
2022-12-31T14:39:49.315Z,87.23
2022-12-31T14:42:28.123Z,87.89
2022-12-31T14:45:17.585Z,88.68
2022-12-31T14:47:54.510Z,89.24
2022-12-31T14:50:25.500Z,89.87
2022-12-31T14:53:14.853Z,89.75
2022-12-31T14:55:41.473Z,90.64
2022-12-31T14:58:31.898Z,92.20
2022-12-31T15:01:22.374Z,91.79
2022-12-31T15:03:50.548Z,91.67
2022-12-31T15:06:22.954Z,93.19
2022-12-31T15:08:49.436Z,94.25
2022-12-31T15:11:37.296Z,95.14
2022-12-31T15:14:25.474Z,95.88
2022-12-31T15:17:07.358Z,95.92
2022-12-31T15:19:58.592Z,95.88
2022-12-31T15:22:43.637Z,95.55
2022-12-31T15:25:41.526Z,96.65
2022-12-31T15:28:41.600Z,96.97
2022-12-31T15:31:17.457Z,97.36
2022-12-31T15:34:06.255Z,97.31
2022-12-31T15:36:41.128Z,96.72
2022-12-31T15:39:10.635Z,96.88
2022-12-31T15:42:10.296Z,98.02
2022-12-31T15:44:55.249Z,97.57
2022-12-31T15:47:41.564Z,97.15
2022-12-31T15:50:16.103Z,96.98
2022-12-31T15:52:47.932Z,97.61
2022-12-31T15:55:27.261Z,99.56
2022-12-31T15:57:58.287Z,100.00
2022-12-31T16:00:24.945Z,99.58
2022-12-31T16:02:54.538Z,99.71
2022-12-31T16:05:24.793Z,100.00
2022-12-31T16:07:56.465Z,100.00
2022-12-31T16:10:44.200Z,100.00
2022-12-31T16:13:20.682Z,100.00
2022-12-31T16:15:52.006Z,100.00
2022-12-31T16:18:22.780Z,100.00
2022-12-31T16:20:51.840Z,100.00
2022-12-31T16:23:23.883Z,100.00
2022-12-31T16:25:53.914Z,100.00
2022-12-31T16:28:24.548Z,100.00
2022-12-31T16:31:14.830Z,100.00
2022-12-31T16:33:41.530Z,100.00
2022-12-31T16:36:19.493Z,100.00
2022-12-31T16:38:46.114Z,100.00
2022-12-31T16:41:22.316Z,100.00
2022-12-31T16:43:50.392Z,100.00
2022-12-31T16:46:27.719Z,100.00
2022-12-31T16:48:59.909Z,100.00
2022-12-31T16:51:30.579Z,100.00
2022-12-31T16:53:58.601Z,100.00
2022-12-31T16:56:37.129Z,100.00
2022-12-31T16:59:07.878Z,100.00
2022-12-31T17:01:37.039Z,100.00
2022-12-31T17:04:09.660Z,100.00
2022-12-31T17:06:36.486Z,100.00
2022-12-31T17:09:20.975Z,100.00
2022-12-31T17:11:50.573Z,100.00
2022-12-31T17:14:28.634Z,100.00
2022-12-31T17:17:03.865Z,100.00
2022-12-31T17:19:46.285Z,100.00
2022-12-31T17:22:36.221Z,100.00
2022-12-31T17:25:08.243Z,100.00
2022-12-31T17:27:36.332Z,100.00
2022-12-31T17:30:39.835Z,100.00
2022-12-31T17:33:12.490Z,100.00
2022-12-31T17:35:43.475Z,100.00
2022-12-31T17:38:22.321Z,100.00
2022-12-31T17:40:52.857Z,100.00
2022-12-31T17:43:21.881Z,100.00
2022-12-31T17:45:51.571Z,100.00
2022-12-31T17:48:19.949Z,100.00
2022-12-31T17:50:51.581Z,100.00
2022-12-31T17:53:19.073Z,100.00
2022-12-31T17:55:48.549Z,100.00
2022-12-31T17:58:30.027Z,100.00
2022-12-31T18:00:58.211Z,100.00
2022-12-31T18:03:25.052Z,100.00
2022-12-31T18:05:51.996Z,100.00
2022-12-31T18:08:18.623Z,100.00
2022-12-31T18:10:45.358Z,100.00
2022-12-31T18:13:24.522Z,100.00
2022-12-31T18:15:52.602Z,100.00
2022-12-31T18:18:25.925Z,100.00
2022-12-31T18:20:58.511Z,100.00
2022-12-31T18:23:31.099Z,100.00
2022-12-31T18:25:57.660Z,100.00
2022-12-31T18:28:24.222Z,100.00
2022-12-31T18:30:51.353Z,100.00
2022-12-31T18:33:22.311Z,100.00
2022-12-31T18:36:10.064Z,100.00
2022-12-31T18:38:37.493Z,100.00
2022-12-31T18:41:04.381Z,100.00
2022-12-31T18:43:31.104Z,100.00
2022-12-31T18:45:58.075Z,100.00
2022-12-31T18:48:24.714Z,100.00
2022-12-31T18:50:51.308Z,100.00
2022-12-31T18:53:23.107Z,100.00
2022-12-31T18:55:52.893Z,100.00
2022-12-31T18:58:19.797Z,100.00
2022-12-31T19:00:48.133Z,100.00
2022-12-31T19:03:17.268Z,100.00
2022-12-31T19:05:45.621Z,100.00
2022-12-31T19:08:12.202Z,100.00
2022-12-31T19:10:38.781Z,100.00
2022-12-31T19:13:05.387Z,100.00
2022-12-31T19:15:34.840Z,100.00
2022-12-31T19:18:02.482Z,100.00
2022-12-31T19:20:30.489Z,100.00
2022-12-31T19:22:59.042Z,100.00
2022-12-31T19:25:28.477Z,100.00
2022-12-31T19:27:55.163Z,100.00
2022-12-31T19:30:27.771Z,100.00
2022-12-31T19:32:55.022Z,100.00
2022-12-31T19:35:23.272Z,100.00
2022-12-31T19:37:51.828Z,100.00
2022-12-31T19:40:30.242Z,100.00
2022-12-31T19:42:57.503Z,100.00
2022-12-31T19:45:24.934Z,100.00
2022-12-31T19:47:52.604Z,100.00
2022-12-31T19:50:22.059Z,100.00
2022-12-31T19:52:49.891Z,100.00
2022-12-31T19:55:22.103Z,100.00
2022-12-31T19:57:49.093Z,100.00
2022-12-31T20:00:17.473Z,100.00
2022-12-31T20:02:46.411Z,100.00
2022-12-31T20:05:15.412Z,100.00
2022-12-31T20:07:42.069Z,100.00
2022-12-31T20:10:08.919Z,100.00
2022-12-31T20:12:39.172Z,100.00
2022-12-31T20:15:09.388Z,100.00
2022-12-31T20:17:36.556Z,100.00
2022-12-31T20:20:03.761Z,100.00
2022-12-31T20:22:30.321Z,100.00
2022-12-31T20:24:58.301Z,100.00
2022-12-31T20:27:24.835Z,100.00
2022-12-31T20:29:51.398Z,100.00
2022-12-31T20:32:17.963Z,100.00
2022-12-31T20:34:44.556Z,100.00
2022-12-31T20:37:11.117Z,100.00
2022-12-31T20:39:38.047Z,100.00
2022-12-31T20:42:04.761Z,100.00
2022-12-31T20:44:31.326Z,100.00
2022-12-31T20:46:57.848Z,100.00
2022-12-31T20:49:44.883Z,100.00
2022-12-31T20:52:10.885Z,100.00
2022-12-31T20:54:37.547Z,100.00
2022-12-31T20:57:04.276Z,100.00
2022-12-31T20:59:30.835Z,100.00
2022-12-31T21:02:20.940Z,100.00
2022-12-31T21:04:45.434Z,100.00
2022-12-31T21:07:12.191Z,100.00
2022-12-31T21:09:38.776Z,100.00
2022-12-31T21:12:24.451Z,100.00
2022-12-31T21:14:50.969Z,100.00
2022-12-31T21:17:17.520Z,100.00
2022-12-31T21:19:44.163Z,100.00
2022-12-31T21:22:10.763Z,100.00
2022-12-31T21:24:39.059Z,100.00
2022-12-31T21:27:06.183Z,100.00
2022-12-31T21:29:34.897Z,100.00
2022-12-31T21:32:02.297Z,100.00
2022-12-31T21:34:29.016Z,100.00
2022-12-31T21:36:55.703Z,100.00
2022-12-31T21:39:22.240Z,100.00
2022-12-31T21:41:51.426Z,100.00
2022-12-31T21:44:23.649Z,100.00
2022-12-31T21:47:33.123Z,100.00
2022-12-31T21:49:41.749Z,100.00
2022-12-31T21:52:26.748Z,100.00
2022-12-31T21:55:19.770Z,100.00
2022-12-31T21:58:24.311Z,100.00
2022-12-31T22:00:53.559Z,100.00
2022-12-31T22:03:27.823Z,100.00
2022-12-31T22:06:09.011Z,100.00
2022-12-31T22:08:36.358Z,100.00
2022-12-31T22:11:02.755Z,100.00
2022-12-31T22:13:29.317Z,100.00
2022-12-31T22:16:04.336Z,100.00
2022-12-31T22:18:34.352Z,100.00
2022-12-31T22:21:09.581Z,100.00
2022-12-31T22:23:41.522Z,100.00
2022-12-31T22:26:10.769Z,100.00
2022-12-31T22:28:40.313Z,100.00
2022-12-31T22:31:09.920Z,100.00
2022-12-31T22:33:36.510Z,100.00
2022-12-31T22:36:06.638Z,100.00
2022-12-31T22:38:34.341Z,100.00
2022-12-31T22:41:08.365Z,100.00
2022-12-31T22:43:37.592Z,100.00
2022-12-31T22:46:25.149Z,100.00
2022-12-31T22:48:53.488Z,100.00
2022-12-31T22:51:20.661Z,100.00
2022-12-31T22:53:47.214Z,100.00
2022-12-31T22:56:16.493Z,100.00
2022-12-31T22:58:43.595Z,100.00
2022-12-31T23:01:22.441Z,100.00
2022-12-31T23:03:50.660Z,100.00
2022-12-31T23:06:17.665Z,100.00
2022-12-31T23:09:07.056Z,100.00
2022-12-31T23:11:35.977Z,100.00
2022-12-31T23:14:22.152Z,100.00
2022-12-31T23:17:29.160Z,100.00
2022-12-31T23:20:12.469Z,100.00
2022-12-31T23:22:57.782Z,100.00
2022-12-31T23:25:24.326Z,100.00
2022-12-31T23:27:50.879Z,100.00
2022-12-31T23:30:17.528Z,100.00
2022-12-31T23:32:44.055Z,100.00
2022-12-31T23:35:10.735Z,100.00
2022-12-31T23:37:37.265Z,100.00
2022-12-31T23:40:04.316Z,100.00
2022-12-31T23:42:30.870Z,100.00
2022-12-31T23:44:57.452Z,100.00
2022-12-31T23:47:24.031Z,100.00
2022-12-31T23:49:50.576Z,100.00
2022-12-31T23:52:17.107Z,100.00
2022-12-31T23:54:43.696Z,100.00
2022-12-31T23:57:10.689Z,100.00
2022-12-31T23:59:37.510Z,100.00
